India (IN) Flag India (IN)

900 ASN Networks

ASN Description IPv4 Prefixes IPv6 Prefixes IPv4 Peers IPv6 Peers Date Allocated
AS2697 Education and Research Network 149 2 3 2 2002-08-01
AS9238 TATA ISP 37 0 1 0 2000-05-24
AS9583 Sify Limited 1,691 7 153 126 1999-07-23
AS9653 Acme Plaza 1 0 2 0 2009-10-01
AS10029 SHYAM SPECTRA PVT LTD 291 33 18 7 2000-06-14
AS10199 Tata Communications Ltd 88 0 1 0 2000-09-01
AS17423 Sureprep AS 1 0 1 0 2004-11-26
AS17624 Qualcomm Inc. Bangalore AS, Developer of CDMA Technology India 3 0 2 0 2005-03-03
AS17625 BlazeNet's Network 180 14 14 6 2001-01-22
AS17762 Tata Teleservices Maharashtra Ltd 398 9 49 9 2001-05-28
AS17908 Tata Communications 223 0 2 0 2001-08-14
AS18008 Quatrro Network Border AS 5 0 2 0 2007-11-15
AS18166 STERLITE TECHNOLOGIES LTD 1 0 1 0 2011-08-05
AS23658 Tata Power Solar Systems Limited 1 0 1 0 2003-02-27
AS23768 RoltaNet 3 0 2 0 2003-06-12
AS24080 Rose IT Solutions 2 0 2 0 2004-06-15
AS24084 PLOT NO: 3A, SECTOR 126, SEZ, NOIDA 81 0 6 0 2011-07-15
AS24222 OFFICETIGER DATABASE SYSTEMS INDIA PVT LTD 12 0 5 0 2004-09-10
AS24332 Lason Inc 6 0 2 0 2007-01-29
AS24515 Software Technology Parks of India-Jaipur 8 5 3 0 2005-12-23
AS24554 Fivenetwork Solution India Pvt Ltd Internet 187 0 8 0 2006-02-02
AS24574 Nuance Transcription Services India Private Limited 5 0 3 0 2006-03-02
AS38053 Neesa Technologies Pvt. Ltd. 4 0 2 0 2009-09-18
AS38058 AMDOCS DEVELOPMENT CENTRE INDIA LLP 9 0 5 0 2006-06-13
AS38219 Skoda Auto India Pvt.Ltd. 1 0 1 0 2006-09-13
AS38233 Gurudas Heritage, 3rd floor 1 0 2 0 2009-12-03
AS38241 HI-TECH ISOLUTIONS LLP 4 0 2 0 2006-10-02
AS38310 iCan Solutions Pvt. Ltd. AS 6 0 2 0 2006-12-19
AS38314 R Systems International LTD 1 0 2 0 2006-12-21
AS38538 Oracle India Developement Centre. 1 1 2 0 2007-04-16
AS38571 Star Broadband Services 36 0 2 0 2007-05-21
AS38596 Innodata-ISOGEN, Inc 2 0 1 0 2007-06-21
AS38746 Tech Mahindra Limited 3 1 1 0 2007-09-19
AS38874 KARVY CONSULTANTS LTD., 5 0 2 0 2008-01-14
AS45119 Tanla Solutions Ltd, Multinational Company 2 0 2 0 2008-02-26
AS45154 Appnomic Systems Pvt Ltd 3 0 2 0 2009-05-27
AS45189 INDIA'S ONLY CARRIER NEUTRAL DATA CENTRE 8 0 2 0 2008-04-22
AS45466 CPA GLOBAL SUPPORT SERVICES INDIA PVT LTD. 2 0 2 0 2008-10-10
AS45624 10th Floor , Winchester House , 1 0 1 0 2009-02-05
AS45648 Bell Teleservices India Pvt Ltd., ISP having own OFC network in Bangalore, India. 42 26 3 1 2009-03-09
AS45661 Capture Network Systems Pvt Ltd 19 0 4 0 2009-03-23
AS45775 WISH NET PRIVATE LIMITED 41 0 1 0 2009-05-12
AS45916 Gujarat Telelink Pvt Ltd 265 1 3 1 2010-01-25
AS46068 Zensar Technologies Ltd 4 0 2 0 2009-11-13
AS55333 EL6,TTC Industrial Area,Electronics Zone 6 0 3 0 2009-12-14
AS55353 RAJESH PATEL NET SERVICES PVT. LTD. 36 2 2 1 2009-12-31
AS55441 TTSL-ISP DIVISION 50 7 3 2 2010-03-05
AS55448 GlobalLogic India Ltd. 6 0 4 0 2010-03-17
AS55470 Cyfuture India Pvt. Ltd. 86 1 6 1 2010-04-06
AS55510 5/D5, SIPCOT IT PARK, 1st CROSS ST, 1 0 2 0 2010-05-10
AS55529 DLF Building no. 6, Tower A 1 0 1 0 2010-05-28
AS55577 Atria Convergence Technologies pvt ltd 45 6 1 1 2010-07-13
AS55578 Tower 2, #95/1 & 95/2, 1 0 2 0 2010-07-15
AS55717 70, KLJ Complex, 1 0 3 0 2010-08-16
AS55734 001 IT Complex 3 0 1 0 2010-08-24
AS55741 West Bengal Electronics Industry Development 2 2 1 0 2010-08-31
AS55804 Army & Navy Building, 1 0 1 0 2010-10-11
AS55824 NKN Core Network 121 87 61 15 2010-10-19
AS56224 PRISAC AVIATION TECHNOLOGIES PRIVATE LIMITED 4 0 1 0 2011-04-27
AS58371 Teleradiology Solutions Pvt. Ltd. 1 0 2 0 2011-08-15
AS58664 ADOBE-NET-INFRA 30 0 10 0 2012-07-18
AS58678 Intech Online Private Limited 170 15 22 5 2012-08-10
AS58909 IBEE Software Solutions Pvt. Ltd. 5 1 2 1 2013-04-22
AS58976 Sophos Technologies Pvt. Ltd 2 0 2 0 2013-07-25
AS59215 CrudeArea Web Private Limited 4 0 1 0 2013-10-21
AS59379 EFFICIENT ELECTRICALS ONLINE SOLUTIONS (IND) PVT LTD 1 0 1 0 2014-07-01
AS63935 Mu Sigma Business Solution Private Ltd 1 0 2 0 2015-01-21
AS131255 Caliber Point Business Solutions Ltd 3 0 3 0 2015-10-30
AS131265 TCS eServe Limited 8 0 3 0 2009-12-01
AS131993 UNIT 107 MULTISTORIED BUILDING, SEEPZ, 2 0 2 0 2011-08-04
AS132043 4th Floor New Administrative Building 2 1 2 2 2011-10-07
AS132075 Tech Mahindra Business Services Limited 6 0 2 0 2011-11-14
AS132090 Mify Solutions Pvt. Ltd. 1 0 1 0 2016-07-28
AS132151 NAVIGANT BPM (INDIA) PRIVATE LIMITED 2 0 3 0 2012-02-16
AS132215 Power Grid Corporation of India Limited 76 7 75 15 2012-03-23
AS132308 CONDUENT BUSINESS SERVICES INDIA LLP 4 0 5 0 2012-06-19
AS132346 SPICITY 2 0 3 0 2012-07-31
AS132349 Mylan Laboratories Ltd 1 0 1 0 2012-08-03
AS132401 COMCAST INDIA ENGINEERING CENTER I LLP 1 1 2 1 2016-08-19
AS132413 First Data Resources Australia Limited 2 0 3 0 2012-09-17
AS132441 SHRI SAIBABA SANSTHAN TRUST, SHIRDI 1 0 1 0 2012-10-08
AS132445 Khetan Cable Network Pvt. Limited 15 1 2 1 2012-10-09
AS132515 Maximo Infotech 2 1 2 1 2012-12-10
AS132527 Department of Posts 6 0 1 0 2012-12-14
AS132539 Viteos Capital Market Services Limited 1 0 2 0 2012-12-28
AS132540 AIRNAT IT SOLUTIONS PVT LTD 12 0 2 0 2012-12-31
AS132711 Dell SonicWALL 1 1 2 1 2013-03-26
AS133469 Multinet (Udaipur) Private Limited 8 0 2 0 2015-08-11
AS133520 DSP BlackRock Investment Managers Pvt. Ltd 1 0 1 0 2014-06-02
AS133589 DECO MEDIA AND COMMUNICATIONS PVT LTD 8 0 1 0 2014-08-27
AS133750 Deere & Company 1 1 1 0 2014-10-02
AS134452 Jasper Infotech Pvt Ltd. 3 0 2 0 2015-08-07
AS134556 BLACKNGREEN MOBILE SOLUTIONS Pvt Ltd. 1 0 2 0 2015-09-03
AS134789 PRAMODANJALI TECHNOLOGIES PRIVATE LIMITED 4 0 1 0 2015-11-02
AS134799 Shipco IT Pvt Ltd 1 0 1 0 2015-11-10
AS134964 KONY INDIA PVT LTD 2 0 2 0 2019-06-25
AS135036 UCPL - NextG Network Provider 10 0 2 0 2016-01-19
AS135133 PI DATA CENTERS PRIVATE LIMITED 5 0 2 0 2016-02-26
AS135299 TechProcess Payment Services Limited 2 0 3 0 2016-04-01
AS135397 Cigniti Technologies Limited 2 0 2 0 2016-05-05
AS135602 Wowway Labs Private Limited 8 0 1 0 2016-06-28
AS135644 Caspar Technologies 5 0 1 0 2016-10-19
AS135818 Green Tech Net Com Pvt Ltd 4 0 1 0 2016-10-25
AS136230 Evergreen Internet 4 0 1 0 2017-01-23
AS136622 Equitas Small Finance Bank Ltd 2 0 1 0 2017-06-07
AS136625 Ookla Telecom Pvt.ltd 1 0 1 0 2017-06-07
AS136814 BMC Software India Pvt. Ltd. 1 0 2 0 2017-07-17
AS136902 Alegra Communication Private Limited 7 0 2 0 2017-08-03
AS136926 Knoah Solutions Pvt. Ltd. 1 0 2 0 2017-08-21
AS136985 Religare Broking Limited 1 0 2 0 2020-03-05
AS137211 Jumio India Pvt. Ltd. 1 0 2 0 2017-12-01
AS137504 Kimberly-Clark Corporation 1 0 1 0 2018-03-09
AS137586 Nextech Infosys 3 0 1 0 2018-04-12
AS137956 Indian Institute of Technology Ropar 1 0 1 0 2018-07-09
AS138154 Thomson Reuters International Services Pvt Ltd 1 0 1 0 2018-08-23
AS138161 SBI Funds Management Private Limited 2 0 1 0 2018-08-28
AS138220 Sasa Broadband Technologies Pvt. Ltd. 6 0 1 0 2018-09-19
AS138241 Compatible Network Pvt Ltd 1 0 2 0 2018-09-19
AS138425 R Systems International Limited 1 0 2 0 2018-11-13
AS139211 Flex Ltd. STT (Tata) Colo, 226, Ambattur Red Hills Rd, Kallikuppam, Ambattur, Chennai, Tamil Nadu 600053 India 4 0 2 0 2019-06-07
AS139269 Samsung R&D Institute India-Bangalore Private Limited 1 0 2 0 2019-06-28
AS139463 Itiviti India Pvt Ltd 1 0 2 0 2019-07-31
AS139477 Trichy Internet Communication Pvt Ltd 2 0 1 0 2019-08-06
AS139631 Lodestone Software Services Pvt. Ltd. 1 0 1 0 2019-09-05
AS139703 Blujay Solutions India Pvt Ltd 1 0 2 0 2019-10-03
AS139864 National Investment And Infrastructure Fund Limited 1 0 2 0 2019-12-09
AS139884 Apeiron Global Pvt. Ltd. 2 0 1 0 2019-12-13
AS140242 INDHUANDMAHADEV BROADBAND PVT LIMITED 2 0 1 0 2020-03-11
AS140545 Pathcom Technologies Pvt Ltd 3 0 1 0 2020-04-06
AS140641 YOTTA NETWORK SERVICES PRIVATE LIMITED 3 1 7 4 2020-05-13
AS9285 Technopark, Trivandrum, India 4 0 2 0 2006-11-22
AS9540 VELOCIX LIMITED 2 0 1 0 2018-10-17
AS9752 Flipkart Internet Pvt Ltd 10 2 5 3 2011-07-21
AS9796 Internet Service Providers 8 0 2 0 2000-01-04
AS9836 Hindustan Petroleum Corporation Limited 1 1 4 1 2009-01-19
AS10201 Dishnet Wireless Limited. Broadband Wireless 5 0 1 0 2004-11-10
AS17426 Primesoftex Ltd 60 10 7 0 2000-10-18
AS17436 ICICIBANK Ltd, Banking, Mumbai 6 2 2 0 2005-06-17
AS17443 Karuturi Telecom Pvt Ltd 3 0 2 0 2000-10-31
AS17488 Hathway IP Over Cable Internet 1,172 46 4 0 2000-11-28
AS17648 Hughes Communications India Private Limited 18 1 2 1 2001-02-23
AS17748 ASN in India 1 0 1 0 2008-05-26
AS17825 Tech Mahindra Ltd. Software Development Organisation India 12 1 5 1 2005-05-04
AS17917 Quadrant Televentures Limited 321 4 20 3 2001-08-24
AS18101 Reliance Communications Ltd.DAKC MUMBAI 951 7 81 24 2002-01-17
AS18207 YOU Broadband & Cable India Ltd. 459 10 2 0 2002-05-07
AS18209 Atria Convergence Technologies pvt ltd 124 19 4 3 2007-02-05
AS23772 M/s Ortel Communications Ltd 25 0 2 0 2003-06-16
AS23984 CONDUENT BUSINESS SERVICES INDIA LLP 1 0 1 0 2004-01-07
AS24178 Godrej Infotech limited 3 0 2 0 2005-10-24
AS24216 Mumbai, IN 1 0 3 0 2005-11-02
AS24309 Atria Convergence Technologies Pvt. Ltd. Broadband Internet Service Provider INDIA 168 51 6 1 2004-12-08
AS24471 USsoftware P Ltd. 13 0 6 0 2005-06-16
AS24501 Bertelsmann Marketing Services India Pvt. ltd. 1 0 2 0 2005-12-01
AS24539 Synopsys Inc. 4 0 2 0 2006-01-13
AS24560 Bharti Airtel Ltd., Telemedia Services 1,421 26 1 0 2006-02-13
AS38015 Capgemini Technology Services India Limited 8 0 1 0 2006-05-11
AS38185 CDAC Noida, India 5 1 3 1 2006-07-26
AS38188 Concentrix BPO Pvt Ltd 2 0 2 0 2006-07-27
AS38191 Infosys Technologies Ltd 48 2 12 2 2006-07-31
AS38312 Vcare Call centers India, Call centers provider, 1 0 1 0 2006-12-20
AS38468 ASN for YESBANK 11 0 2 0 2007-03-01
AS38536 Software Technology Parks of India, 3 2 2 0 2007-04-12
AS38625 CJONLINE ISP India 12 1 2 1 2007-08-06
AS38720 Tech Mahindra Limited 1 0 1 0 2007-09-06
AS38857 e.Soft Technologies Ltd. 1 0 1 0 2007-12-14
AS45219 AEGIS CUSTOMER SUPPORT SERVICES PRIVATE LIMITED 7 0 2 0 2008-05-22
AS45337 Headstrong Services India Pvt. Ltd. 1 0 2 0 2008-08-05
AS45432 Tech Mahindra Limited 36 1 7 0 2008-09-15
AS45513 Plot # X-16 14TH Street MIDC 1 0 1 0 2008-11-07
AS45742 Cyient Limited 7 0 2 0 2009-04-15
AS45760 Infrastrsture development finance company. 3 0 2 0 2009-04-28
AS45767 FIS Global Business Solutions India Private Limited, outsourcing services to financial companies. 4 0 2 0 2009-05-05
AS45801 Accretive Health Services Pvt Ltd 2 0 2 0 2009-06-16
AS45830 Atul Limited,India 1 0 2 0 2009-06-29
AS45884 RVR Infrastructure Limited Service provider hyderabad india 3 1 1 1 2009-08-21
AS45885 Orange Business Services India Technology 2 0 2 0 2009-08-24
AS55341 51/A RACHNA MIDAS GOKULPETH 23 0 3 0 2009-12-18
AS55410 Vodafone Idea Ltd 773 10 237 44 2010-02-09
AS55429 Limelight Networks India 4 3 2 2 2010-02-26
AS55459 Servion Global Solutions Ltd 1 0 2 0 2010-03-30
AS55474 Master Capital Services Ltd 1 0 2 0 2010-04-08
AS55479 IIT Kanpur 2 1 2 2 2010-04-12
AS55756 TATA Communications Internet Services Ltd 3 0 1 0 2010-09-10
AS55779 IL & FS Financial Center, Bandra 2 0 2 0 2010-09-20
AS55780 ROYAL SUNDARAM GENERAL INSURANCE CO. LIMITED 3 0 2 0 2010-09-20
AS55814 Siliguri Internet & Cable TV Pvt. Ltd. 12 0 2 0 2010-10-14
AS55836 Reliance Jio Infocomm Limited 209 205 49 18 2010-10-27
AS55847 NKN EDGE Network 14 1 2 1 2010-11-03
AS55947 Bangalore Broadband Network Pvt Ltd 31 12 2 0 2010-12-21
AS56056 Sector 125 2 0 2 0 2011-01-28
AS56061 Upper Ground floor to 7th floor, Westend Center 1 4 0 2 0 2011-01-31
AS56108 PrimeFocus House Opp Citi Bank 3 0 2 0 2011-02-28
AS56166 IISER Bhopal Campus 1 0 2 0 2011-03-21
AS56201 Zoho Corporation Pvt. Ltd, 10 1 2 0 2011-04-14
AS56283 34 Egatoor Kelambakkam 1 0 2 0 2011-05-16
AS58590 Assam Electronics Development Corp Ltd 3 1 3 0 2012-05-02
AS58693 NNI 5 0 1 0 2012-09-03
AS58700 Spice Digital Ltd. 1 0 3 0 2012-09-12
AS64088 ioClinica India Private Limited 3 0 4 0 2016-02-18
AS131226 Indian Institute Of Technology Roorkee 1 0 1 0 2014-08-27
AS131269 ACTFIBERNET Pvt Ltd 54 0 2 0 2009-12-14
AS131473 SRM Nagar 2 0 2 0 2011-07-15
AS132135 Hero MotoCorp Ltd 2 0 3 0 2012-02-06
AS132272 TRIJIT TECHNOLOGIES PVT LTD 1 0 2 0 2012-05-21
AS132303 Tata Sky Ltd 4 0 2 0 2012-06-14
AS132335 LeapSwitch Networks Pvt Ltd 61 7 15 11 2012-07-19
AS132371 Solartis Technology Services Private Limited 1 0 2 0 2017-10-04
AS132417 Plot No. 5& 43, HITECH City, Madhapur 2 0 2 0 2012-09-19
AS132453 TRIPLE PLAY BROADBAND PRIVATE LIMITED 24 0 5 0 2012-10-16
AS132613 SunTec Business Solutions Pvt. Ltd. 1 0 2 0 2013-02-15
AS132717 NxtGen Datacenter & Cloud Technologies Pvt. Ltd. 33 4 9 0 2013-03-28
AS132871 Click Software India Pvt. Ltd 1 0 1 0 2013-06-20
AS133028 EVRY INDIA PRIVATE LIMITED 2 0 2 0 2013-07-31
AS133036 Amadeus is an international computer reservations system. A subsidary is in Bangalore and the ASN is for this site 1 0 2 0 2013-08-05
AS133388 IMS Health India Pvt Ltd 4 0 2 0 2014-02-25
AS133505 McKinsey & Company 9 0 2 0 2014-05-28
AS133580 Vodafone Mobile Services Ltd 3 0 1 0 2016-09-23
AS133638 TrackNet services Pvt Ltd 8 0 2 0 2014-09-15
AS134246 WELCO INFOTECH PVT LIMITED 4 0 3 0 2015-06-17
AS134352 ARIDE OCEAN INFOWAY PRIVATE LIMITED 2 0 1 0 2015-06-19
AS134512 HostPalace Web Solution PVT LTD 20 0 99 0 2015-08-14
AS135031 RI Networks Pvt. Ltd. 57 0 2 0 2016-01-14
AS135082 Labvantage Solutions Pvt. Ltd. 1 0 2 0 2016-02-08
AS135139 Skylink Fibernet Private Limited 10 27 5 2 2018-05-03
AS135422 SHASS INFORMATION & QUALITY ENGINEERING SERVICES PVT LTD 6 0 3 0 2016-05-16
AS135557 Seven Hills Cloud Technology Private Limited 1 0 1 0 2016-06-10
AS135595 SIRO Clinpharm Pvt. Ltd. 1 0 1 0 2016-06-23
AS135678 Airnet Broadband 2 0 1 0 2016-06-17
AS135884 MAGNET BRAINS SOFTWARE TECHNOLOGY PRIVATE LIMITED 3 0 1 0 2016-11-09
AS136005 RAMAN RESEARCH INSTITUTE 1 0 1 0 2016-11-18
AS136166 ANGEL BROKING LIMITED 2 0 3 0 2016-12-30
AS136171 Medha Hosting 2 1 1 0 2017-01-10
AS136179 GMR Infrastructure Ltd 1 0 1 0 2017-01-11
AS136252 THE BANK OF BARODA LIMITED 6 0 2 0 2017-02-06
AS136271 IMS Health India Pvt Ltd 8 0 2 0 2017-02-15
AS136440 Sungard Availability Services (India) Private Limited 1 1 2 0 2017-03-16
AS136475 Planetcast Media Services Limited 1 1 2 1 2017-03-31
AS136590 OPENTEXT CORPORATION 1 0 2 0 2017-05-19
AS136987 Vodafone India Services Private Ltd 2 0 1 0 2017-09-22
AS137004 Netbeats Infoway Pvt. Ltd. 4 0 4 0 2017-10-03
AS137389 SHASS INFORMATION AND QUALITY ENGINEERING SERVICES 1 0 1 0 2018-01-05
AS137950 Neerja Softwares Pvt Ltd 2 1 1 0 2018-07-04
AS137972 K G Information Systems Private Limited 2 0 3 0 2018-07-13
AS138012 SEQURETEK IT SOLUTIONS PRIVATE LIMITED 1 0 1 0 2018-07-26
AS138035 BGP ASN for Novartis Hyderabad office internet peering with Bharti and Vodafone 1 0 1 0 2018-08-03
AS138162 Bayer Cropscience Limited 2 0 2 0 2018-08-28
AS138176 Ameriprise India Pvt Ltd 1 0 2 0 2018-08-31
AS138364 UNIFY NETSOL PRIVATE LIMITED 4 0 1 0 2018-10-22
AS138696 Solartis Technology Services Private Limited 1 0 2 0 2019-03-12
AS139066 NTT Data Global Delivery Services Limited 1 0 2 0 2019-05-15
AS139195 Seans Media Pvt Ltd 26 4 10 0 2019-05-28
AS139684 Icertis Solutions Pvt Ltd 1 0 1 0 2019-09-26
AS139707 MALNAD INFOTECH PRIVATE LIMITED 2 0 1 0 2019-10-08
AS140871 Zeta FZ-LLC 1 0 1 0 2020-06-29
AS141193 EDGOO NETWORKS, UNIPESSOAL LDA 3 0 1 0 2020-09-19
AS7633 Software Technology Parks of India - Bangalore 239 72 9 5 1997-09-26
AS9223 Spreaded across 35 locations in india 1 0 2 0 2009-09-04
AS9396 Tikona Infinet Ltd. 1 0 2 0 2005-06-30
AS9430 Software Technology Parks of India,Block-IV 36 11 6 3 1998-10-19
AS9558 PrimeCrown Technologies Private Limited 10 5 21 14 2016-07-27
AS9885 NKN INTERNET GATEWAY NETWORK 1 0 15 10 2009-09-03
AS9941 Ranbaxy Laboratories Limited 2 0 1 0 2005-10-24
AS17439 Netmagic Datacenter Mumbai 624 27 26 7 2000-10-30
AS17665 AS Number of Indusind Media and communication Ltd. 181 6 39 2 2001-03-14
AS17754 Excellmedia 202 4 7 3 2001-05-21
AS17810 Cellnext Solutions Limited - 4 0 2 0 2001-07-05
AS17813 Mahanagar Telephone Nigam Limited 109 2 4 2 2001-07-09
AS17820 DIRECT INTERNET LTD. 65 12 1 0 2001-07-12
AS18120 Gemini Software Solutions (P) Ltd. Hosting Services, India 4 0 2 0 2005-09-09
AS18211 Nomura India Services Pvt Ltd 12 0 4 0 2009-09-09
AS23664 Wipro Technologies, 30 1 4 1 2004-12-14
AS23860 Alliance Broadband Services Pvt. Ltd. 193 1 8 0 2005-08-31
AS23901 HARMAN CONNECTED SERVICES CORPORATION INDIA PRIVATE LIMITED 6 3 3 3 2003-09-26
AS24003 JUBILANT ORGANOSYS LTD., INDIA, LEADING CHEMICAL MANUFACTURER 3 0 2 0 2005-04-29
AS24055 Deutsche Bank AG-India Internet AS 3 0 2 0 2007-07-04
AS24109 WNS Global Services 19 0 6 0 2004-07-28
AS24391 Capgemini Technology Services India Limited 6 0 3 0 2005-03-30
AS24448 Synamedia Technologies (India) Private Limited 1 0 2 0 2005-05-12
AS38000 [CRISIL Limited.Autonomous System] 6 0 3 0 2007-07-16
AS38204 Ashok leyland Ltd, 3 0 3 0 2006-08-18
AS38224 Rediff.com India Limited, 21 0 2 0 2006-09-15
AS38261 PUNJ LLOYD LIMITED 1 0 2 0 2006-10-16
AS38306 FISERV 6 0 2 0 2006-12-15
AS38457 Honesty Net Solution (I) Pvt Ltd 141 5 5 1 2007-02-20
AS38546 CONJOINIX TECHNOLOGIES PVT. LTD. 8 1 2 1 2007-04-20
AS38573 Virtusa Global AS 7 0 4 0 2007-05-22
AS38872 Indian School of Business, a world class business school, India 1 0 2 0 2008-01-10
AS38902 GlobalLogic India Ltd. 6 1 3 1 2008-02-13
AS45117 Ishan's Network 223 100 60 11 2008-02-26
AS45232 Spacenet Internet Services Pvt. Ltd. 40 0 2 0 2008-06-16
AS45357 IInd Floor, Tower C, Global Business Park 2 0 3 0 2008-08-18
AS45519 UGAM SOLUTIONS PVT LTD, 1 0 2 0 2008-11-12
AS45525 MACAWBER BEEKAY PVT LTD 1 0 1 0 2008-11-19
AS45573 HSBC EDPI Pvt Ltd. 1 0 3 0 2008-12-11
AS45609 Bharti Airtel Ltd. AS for GPRS Service 1,554 1,849 6 1 2009-01-29
AS45635 Plot No. 117, Road No. 18, 2 0 2 0 2009-02-19
AS45636 Plot No. 1D, Udyog Vihar Industrial Estate 1 0 2 0 2009-02-19
AS45644 IT-Networking Department 4 4 2 0 2009-03-04
AS45655 Polaris Consulting & Services Limited 9 0 3 0 2009-03-18
AS45670 # 160,North Usman Road, Third Floor 1 0 1 0 2009-03-31
AS45749 Amadeus India 1 0 2 0 2009-04-20
AS45804 MEGHBELA BROADBAND 125 11 10 2 2009-06-18
AS45813 ISG NovaSoft Technologies Limited,Bangalore,India. 1 0 1 0 2009-06-23
AS45815 ESDS Software Solution Pvt. Ltd. 37 2 5 3 2009-06-24
AS45851 Bharat Bhawan - II, IIS Department 1 0 2 0 2009-07-21
AS45853 Shresta Bhumi 1 1 2 1 2009-07-22
AS45854 2nd Floor, Universal Building Mill Compound, 16 5 4 3 2009-07-23
AS45927 THE SINGARENI COLLIERIES COMPANY LIMITED 1 0 2 0 2009-10-15
AS45955 PhillipCapital India Private Limited 1 0 1 0 2009-11-03
AS46071 Pioneer Elabs Ltd. 14 0 12 0 2009-11-18
AS55433 Centre for Development of Advanced Computing 2 0 2 0 2010-03-01
AS55446 CENTRE FOR DEVELOPMENT OF TELEMATICS 8 1 2 0 2010-03-16
AS55644 Idea Cellular Limited 109 61 33 10 2010-07-30
AS55712 Block 9A, 1st Floor, DLF - SEZ 2 0 3 0 2010-08-12
AS55832 HOME SYSTEMS PVT.LTD 107 1 4 1 2010-10-26
AS55862 Wan & Lan Internet Pvt Ltd 55 0 3 0 2010-11-10
AS56107 Jagran Building 2 0 1 0 2011-02-25
AS56272 Pulse Telesystems Pvt Ltd 22 16 5 1 2011-05-11
AS56285 Plot No.770, Road No.44 1 1 1 0 2011-05-16
AS56290 6-3-1192/2/1 Kundanbagh Begumpet 3 0 2 0 2011-05-18
AS58428 Altius Block, 9th Floor Olympia Tech Park 1 0 1 0 2011-09-28
AS58442 Film City 19 1 0 1 0 2011-10-21
AS58457 Gandhi Nagar 3 0 2 0 2011-11-17
AS58641 Trunkoz Technologies Pvt Ltd 3 2 2 2 2012-07-10
AS58872 Fujitsu Consulting India Pvt Ltd 2 0 2 0 2013-03-13
AS58954 LEARNSOCIAL.COM INDIA PRIVATE LIMITED 4 0 1 0 2013-07-04
AS131170 Electronics For Imaging India Private Limited 1 0 2 0 2014-08-14
AS131232 ADP Private Limited 6 0 2 0 2014-09-02
AS131256 MGRM DIGITAL CLOUD SERVICES PRIVATE LIMITED 5 0 2 0 2009-11-10
AS131317 TTSL-ISP DIVISION 2 4 2 0 2011-06-09
AS132116 Ani Network Pvt Ltd 152 0 19 0 2012-01-13
AS132152 Persistent System Ltd 2 0 2 0 2012-02-16
AS132208 NGBPS LTD 5 0 2 0 2012-03-16
AS132220 JPR Digital Pvt. Ltd. 98 11 7 1 2012-03-27
AS132278 Chemoil Information Services Private Limited 1 0 2 0 2012-05-23
AS132296 Seven Star Digital Network Private Limited 52 2 5 2 2016-08-16
AS132329 Firstsource Solutions Ltd 4 0 5 0 2012-07-16
AS132338 HP Global Soft Pvt Ltd 1 0 1 0 2012-07-20
AS132351 National Payment Corporation Of India 2 1 3 1 2012-08-03
AS132383 Varun Priolkar 0 1 0 1 2018-11-01
AS132388 Intuit India Product Development Center Private Limited 3 0 3 0 2012-09-06
AS132415 Palm Court Bldg M, 501/B, 5th Floor, New Link Road 2 0 1 0 2012-09-17
AS132535 ANTARIKSH BROADBAND AND WIRELESS SOLUTION PRIVATE LIMITED 8 0 2 0 2012-12-26
AS132542 Chinetworks India Pvt. Ltd. 4 0 1 0 2012-12-31
AS132547 Sajag Prahari Foundation 2 0 1 0 2013-01-08
AS132587 INFORMATICA BUSINESS SOLUTION PVT LTD 1 0 1 0 2013-01-24
AS133055 Ameriprise India Pvt Ltd 1 0 2 0 2013-08-22
AS133082 AIRMESH COMMUNICATIONS LIMITED 4 0 1 0 2013-12-13
AS133951 Omega Healthcare Management Services Private Limited 4 0 5 0 2015-02-05
AS133961 MALDA NET 4 0 2 0 2015-02-11
AS134122 Le Passage to India Tours & Travels Pvt. Ltd. 1 0 1 0 2015-04-01
AS134182 DHFL General Insurance limited 1 0 1 0 2017-10-05
AS134225 Hyundai Motor India Engineering Pvt Ltd 1 0 2 0 2015-06-02
AS134426 Mahataa Information India Private Limited 15 6 2 3 2015-07-23
AS134540 Tata Teleservices (Maharashtra) Ltd 126 0 1 0 2017-11-15
AS134674 TATA SKY BROADBAND PRIVATE LIMITED 16 27 5 2 2015-09-11
AS134803 Intellect Design Arena Limited 6 0 2 0 2015-11-11
AS134819 GOVT OF INDIA 1 1 2 1 2015-11-19
AS134920 Thomson Reuters International Services Pvt Ltd 1 0 1 0 2015-12-07
AS134975 RateGain Travel Technologies Private Limited 1 0 1 0 2015-12-14
AS135320 Inventurus Knowledge Solutions Private Limited 1 0 2 0 2016-04-07
AS135817 Esto Broadband Private Limited 20 13 17 0 2016-10-25
AS136034 NTT Data Global Delivery Services Limited 1 0 1 0 2016-11-28
AS136449 AIT Internet Services Private Ltd 4 0 3 0 2017-03-21
AS136890 TAAL Tech 1 0 2 0 2017-07-25
AS136946 Weebo networks Pvt Ltd 15 0 3 0 2017-08-29
AS137027 TI Infotech Pvt. Ltd. 1 0 1 0 2017-10-13
AS137191 Couponz villa 2 0 1 0 2017-11-27
AS138242 Nandini Broadband Pvt. Ltd. 4 0 1 0 2018-09-19
AS138327 Skava Systems Private Limited. 1 0 1 0 2018-09-28
AS138329 Kenstar Web Solutions Private Limited 4 31 1 1 2018-09-28
AS138411 Telnet Technoinfra Pvt Ltd 4 0 3 0 2018-11-05
AS138639 Kia Motors India Private Limited 1 0 3 0 2019-02-21
AS139035 GBLINK NETWORK SOLUTIONS PRIVATE LIMITED 2 1 4 4 2019-05-01
AS139068 Luxoft India LLP 1 0 2 0 2020-05-17
AS139320 Phonon Communications Pvt Ltd 1 0 2 0 2019-07-16
AS140033 Indian Institute of Technology Bhilai 1 0 2 0 2020-01-09
AS140094 RapidValue IT Services Private Limited 1 0 1 0 2020-02-11
AS140108 Airson Broadband 1 0 1 0 2020-02-14
AS140218 Yotta Infrastructure solutions LLP 2 0 2 0 2020-02-18
AS140230 ARCELORMITTAL NIPPON STEEL INDIA LIMITED 1 0 2 0 2020-02-24
AS140601 POWERSCHOOL INDIA PRIVATE LIMITED 1 0 1 0 2020-04-24
AS4755 TATA Communications formerly VSNL is Leading ISP 2,170 17 707 148 1996-05-13
AS4797 Wipro Spectramind Services Pvt Ltd (BPO -INDIA) 5 0 3 0 2003-08-28
AS9227 RMZ NXT Campus 1B, Unit 401-402, 4th Floor 1 0 1 0 2009-08-14
AS9498 BHARTI Airtel Ltd. 2,307 92 1,146 329 1999-03-09
AS9730 Bharti Telesonic Ltd 14 0 48 0 2007-09-17
AS9829 National Internet Backbone 1,946 459 64 19 2000-01-19
AS9830 SWIFT ONLINE BORDER AS 67 4 12 1 2000-01-20
AS10121 RISK MANAGEMENT SOLUTIONS INDIA PRIVATE LIMITED 1 0 2 0 2016-08-26
AS10125 INTERGLOBE IS A LARGE BPO AND IT COMPANY IN TRAVEL DOMAIN 2 0 3 0 2008-01-07
AS10215 Microland Limited. IT Infra Service Provider. India 9 0 2 0 2005-01-31
AS17447 Net4India Ltd 116 6 4 0 2000-11-02
AS17465 Cable ISP in India 314 43 13 6 2000-11-16
AS17466 The AS number for GECIS global for their internet peering 18 0 9 0 2005-01-31
AS17483 CityOnline Services Ltd 82 9 6 1 2000-11-24
AS17803 BSES TeleCom Limited 0 2 0 1 2001-06-27
AS17912 EPAM SYSTEMS INDIA PRIVATE LIMITED 1 0 1 0 2008-11-27
AS17913 Guj Info Petro Limited 9 0 1 0 2001-08-22
AS18196 Seven Star Internet Service Provider 65 0 4 0 2002-04-19
AS18229 CtrlS Datacenters Ltd. 336 12 50 6 2005-04-06
AS23770 Tata Institute of Fundamental Research 3 1 2 0 2009-09-25
AS23994 Concentrix Services India Private Limited 4 0 2 0 2005-09-21
AS24041 VCustomer Services India Pvt Ltd. Transit AS. 1 0 1 0 2004-04-06
AS24186 RailTel Corporation of India Ltd., Internet Service Provider, New Delhi 159 14 17 3 2005-10-28
AS24327 Zapapp india Pvt Ltd 2 0 1 0 2016-02-16
AS38021 Network of Indian Institute of Foreign Trade, 1 0 2 0 2006-05-19
AS38174 Capgemini Technology Services India Limited 17 0 4 0 2006-07-17
AS38207 Rajesh Multi Channel Pvt Ltd. 40 0 3 0 2006-08-28
AS38266 Vodafone India Ltd. 499 642 3 0 2006-10-17
AS38557 NTT Data Global Delivery Services Limited 1 0 2 0 2007-04-30
AS38615 Safenet Infotech Pvt. Ltd. 1 0 1 0 2012-06-19
AS38743 ABTINFOSYSTEM PVT LTD - INTERNET DATA CENTER, 5 1 2 0 2007-09-17
AS38799 Indian Railway Catering and Tourism Corporation Limited 5 0 2 0 2007-10-08
AS45148 Digivision Entertainment Private Limited 12 0 4 0 2008-03-13
AS45150 Mphasis Ltd, 4 0 2 0 2008-03-17
AS45153 Sutherland Global Services Private Limited 1 0 2 0 2008-03-17
AS45184 Den Digital Entertainment Pvt. Ltd. AS ISP india 78 7 7 0 2008-04-18
AS45202 Block - BN , Plot - 7 , Sector - V 1 0 2 0 2008-05-07
AS45205 B-21, Infocity, Sector 34 1 0 1 0 2008-05-07
AS45210 METRO-nom GmbH 1 0 1 0 2008-05-12
AS45243 F/X Wireless Technology Solutions Pvt. Ltd. 8 0 2 0 2008-06-27
AS45264 Bajaj Allianz Life Insurance Company Ltd 3 0 3 0 2008-07-15
AS45272 Hexaware Technologies Limited 12 0 3 0 2008-07-18
AS45284 Wireline Solution India Pvt Ltd. 15 0 2 0 2008-07-24
AS45469 Elecon Information Technology Ltd 14 0 2 0 2008-10-13
AS45582 VAINAVI INDUSTIES LTD, INTERNET SERVICE PROVIDER, INDIA 43 1 5 3 2008-12-19
AS45666 INGENICO - Transactions and Business Services 1 0 2 0 2009-03-26
AS45765 4th Floor, Weikfield IT Park 1 0 2 0 2009-05-01
AS45769 D-Vois Broadband Pvt Ltd 450 26 20 1 2009-05-06
AS45825 Lister Technologies (P) Ltd. 2 0 2 0 2009-06-29
AS45915 Yahoo! India Pvt Ltd. 1 1 2 0 2009-09-29
AS45942 Sikka Broadband Pvt. Ltd. 28 1 6 3 2009-10-22
AS45954 SpeedOnline.Net.Pvt.Ltd. 23 0 3 0 2009-11-02
AS55296 NATIONAL INSTITUTE OF PUBLIC FINANCE AND POLICY 1 0 1 0 2009-11-26
AS55428 Mass Infonet (P) Ltd. 4 0 2 0 2010-02-25
AS55494 6th Floor, The Great Oasis, D-13 4 0 3 0 2010-04-22
AS55507 Tejays Dynamic Limited 11 2 7 1 2010-05-05
AS55566 Inter University Centre for Astronomy and Astrophysics 2 0 1 0 2010-07-05
AS55570 8th Floor, DLF Cybercity, 1 0 2 0 2010-07-08
AS55711 Brainpulse Technologies Pvt. Ltd. 8 0 1 0 2010-08-12
AS55740 TTSL-ISP DIVISION 2 5 1 2 2010-08-31
AS55764 HGSL House, No.614, 3 0 3 0 2010-09-15
AS55879 SmartLink Broadband Services Pvt Ltd 45 0 1 0 2010-11-22
AS56093 901 (A1) & 902 (A2), Tidel Park 5 3 2 0 2011-02-18
AS56124 Mousumi Apartment 56 Sreenagar Main Road 1 0 1 0 2011-03-08
AS56202 Suite no 10, Level 5; C Wing 7 0 2 0 2011-04-15
AS56209 R. K. INFRATEL LIMITED 91 5 2 1 2011-04-19
AS56211 5400 LBJ Freeway 1 0 1 0 2011-04-19
AS56268 Northeast Dataa Network Pvt Ltd 11 1 6 0 2011-05-09
AS58537 Sundaram Infotech Solutions(A Division of Sundaram Finance) 1 1 1 1 2012-03-01
AS58597 M.S. Info Web Pvt. Ltd. 12 0 1 0 2012-05-10
AS58640 NEXTRA TELESERVICES PVT. LTD. 264 1 6 1 2012-07-10
AS58702 (n)Code Solutions - A Division of GNFC Ltd. 2 0 3 0 2012-09-14
AS58714 19th Floor, Tower C and D, Building No. 14, DLF Cyber City, 2 2 2 0 2012-10-03
AS58875 Fujitsu Consulting India Pvt Ltd 1 0 2 0 2013-03-15
AS58880 Echidna Software Pvt. Ltd 1 0 1 0 2013-03-22
AS58984 DIGITAL KITES PRIVATE LIMITED 4 0 1 0 2013-08-19
AS59221 FITH Media Private Limited 2 0 1 0 2013-10-30
AS59261 TRIJIT TECHNOLOGIES PVT LTD 1 0 2 0 2014-01-06
AS59327 ADVANCED TECHPRO SERVICES PRIVATE LIMITED 4 0 1 0 2014-03-06
AS64067 HostCircle IT Solutions PVT LTD Chennai, India 1 1 9 5 2015-11-19
AS131169 # 26, Bannerghatta Road, J. P. Nagar, Phase III 8 0 3 0 2010-02-15
AS131262 Kelnet Communication Services (P) Ltd. 10 5 3 0 2009-11-25
AS131299 tornado net private limited 1 0 1 0 2016-07-11
AS131302 294/3 Vidhya Nagari Marg 2 1 3 0 2011-05-30
AS131458 WILLIAMS LEA INDIA PRIVATE LIMITED 7 0 3 0 2011-07-08
AS131463 STN COMMUNICATION & ADVERTISING PVT LTD 2 0 1 0 2011-07-12
AS131787 Keltron House 1 0 2 0 2011-07-25
AS132089 XAVIENT SOFTWARE SOLUTION(INDIA) PRIVATE LIMITED 1 0 2 0 2016-07-27
AS132137 Shree Omkar Infocom Pvt Ltd 42 0 3 0 2012-02-09
AS132150 ValueLabs Technologies 1 0 3 0 2012-02-16
AS132282 Guavus Network Systems Private Limited 1 0 1 0 2012-05-25
AS132322 Good Domain Registry Private Limited 6 0 1 0 2012-07-10
AS132384 Deloitte Consulting India Pvt. Ltd 11 8 5 5 2016-10-09
AS132387 Essar House, 2 0 1 0 2012-09-05
AS132423 Powai 5 1 2 0 2012-09-24
AS132497 DIGITAL NETWORK ASSOCIATES PRIVATE LIMITED 33 0 3 0 2012-11-23
AS132878 HT Media Ltd. 1 0 2 0 2013-06-25
AS133037 Kerala State IT Mission 5 0 2 0 2013-08-05
AS133230 Aristocrat Technologies India Pvt Ltd 2 0 1 0 2014-01-22
AS133386 Reliance Capital Limited 1 0 1 0 2016-09-19
AS133427 OPTOMA PROJECTORS INDIA PRIVATE LIMITED 1 0 1 0 2014-03-25
AS133491 Synchronoss Technologies India Private Limited 1 0 1 0 2014-05-20
AS133768 Schneider Electric India Pvt Ltd 2 0 1 0 2014-10-23
AS133872 EYGBS (India) Pvt Ltd 2 0 2 0 2016-09-27
AS134173 Nagarro Software Private Limited 2 0 3 0 2015-05-05
AS134177 Rural Broadband Pvt. Ltd 8 8 1 0 2015-05-08
AS134375 Fusionnet Web Services Private Limited 40 1 4 1 2015-07-09
AS134450 HostRoyale Technologies Pvt Ltd 1 0 1 0 2015-08-06
AS134513 GIESECKE AND DEVRIENT INDIA PRIVATE LIMITED 2 0 2 0 2015-08-13
AS134801 Synerzip Softech India Pvt Ltd 1 0 1 0 2015-11-11
AS134986 Sundaram Home Finance Limited 1 2 1 0 2015-12-18
AS135086 Axis Bank Limited 6 0 3 0 2016-02-10
AS135170 Servernet Services Pvt Ltd 1 0 1 0 2016-03-18
AS135404 THE WATCH TOWER BIBLE AND TRACT SOCIETY OF INDIA 1 1 1 0 2020-08-03
AS135778 Wi-link Network Private Limited 4 0 1 0 2016-10-25
AS135794 Route Mobile Limited 3 0 2 0 2016-10-25
AS136437 TransUnion Global Technology Center LLP 1 0 2 0 2018-03-31
AS136575 SailPoint Technologies India Private Limited 1 0 1 0 2017-05-16
AS136932 Havells India Limited 2 0 1 0 2017-08-22
AS136956 Assistive Networks and technologies Pvt Ltd 2 0 2 0 2017-09-02
AS137836 THE TATA POWER COMPANY LIMITED 2 0 1 0 2018-05-15
AS137849 TT Network Integration India Pvt Ltd 1 0 3 0 2020-04-13
AS138520 Lalu Network Solutions Private Limited 13 1 6 0 2018-12-21
AS138531 Skandha Networks LLP 1 0 1 0 2018-12-31
AS139331 DevelentCorp. 1 5 1 2 2019-07-22
AS139794 Glovis India Anathapur Private Limited 1 0 2 0 2019-11-14
AS139911 DELUXE ENTERTAINMENT SERVICES INDIA PRIVATE LIMITED 1 0 2 0 2019-12-23
AS140869 Gigabox Private Limited 3 0 1 0 2020-06-26
AS141014 Balaji Teleworks Development Pvt Ltd 2 1 2 0 2020-08-19
AS141156 VOICEETC 2 0 2 0 2020-09-07
AS4758 National Informatics Centre 115 60 4 0 2010-04-08
AS9501 AS number of Chemical & Metallurgical Design Co. Ltd. (PBC) 15 0 1 0 2001-06-14
AS9580 Reed Elsevier multi homes ISP connectivity for India staff (Not Transit) 3 0 2 0 2009-01-19
AS10123 Flytxt Mobile Solutions Pvt Ltd 1 0 1 0 2019-05-22
AS10225 Nettlinx Limited 29 0 4 0 2000-09-29
AS17453 AUTONOMOUS SYTEM FOR MUMBAI-IDC 8 1 3 1 2000-11-08
AS17495 BROADBAND WIRELESSS INTERNET SERVICE PROVIDER 19 0 1 0 2000-12-08
AS17747 SITI NETWORKS LIMITED 138 6 7 3 2001-05-04
AS17753 INTERNET SERVICE PROVIDER 29 3 3 1 2001-05-15
AS17771 Southern Online Bio Technologies Ltd 75 2 4 1 2001-06-01
AS17903 Cognizant Technology Solutions India Pvt Ltd, 108 0 22 0 2005-01-12
AS18002 AS Number for Interdomain Routing 230 5 43 2 2002-02-15
AS18223 Capital IQ Information Systems (India) Pvt, Ltd., 4 0 2 0 2007-11-19
AS18225 Softcell AS Number 6 2 2 0 2002-05-29
AS23682 Broadband Pacenet Pvt. Ltd 70 0 4 0 2003-03-24
AS23726 India Internet Foundation 1 1 1 0 2020-06-11
AS23872 delDSL Internet Pvt. Ltd. 26 0 2 0 2003-08-01
AS23957 Spectrum Softtech Solutions P Ltd. 4 0 2 0 2003-11-21
AS23976 RevitSystems, Tidel Park 2 0 2 0 2003-12-16
AS24049 Internet Systems Consortium, Inc. 1 1 1 1 2004-04-08
AS24103 ToLuna is in to Online Data Collection for Market Research 1 0 2 0 2004-07-21
AS24392 Ankhnet Informations Pvt. Ltd., Internet Service 2 0 2 0 2008-02-26
AS24397 Software Technology Parks of India-Lucknow 3 2 2 0 2005-04-15
AS24485 Gujarat State Petroleum Corporation 2 0 2 0 2008-03-03
AS24558 Internet Hosting Service Provider to the Aditya 3 1 2 0 2006-02-08
AS37934 Artech Infosystems Pvt Ltd 1 0 2 0 2006-03-08
AS38029 Citibank N.A. - ISP Peering, Chennai, India 4 0 4 0 2006-05-23
AS38271 CyberTech House 1 0 1 0 2009-01-07
AS38275 5th Floor, Plot No. 39, Phase II, Block A 2 0 2 0 2009-01-07
AS38461 Capgemini Technology Services India Limited 10 0 1 0 2007-02-22
AS38476 GATI 9 0 3 0 2008-03-14
AS38529 Reliance Industries Limited WAN Backbone Interface with ISPs in India 18 2 2 0 2007-03-28
AS38594 Innodata-ISOGEN, Inc 1 0 2 0 2007-06-19
AS38810 CAIRNENERGY INDIA PTY LTD 1 0 1 0 2007-10-18
AS45194 Syscon Infoway Pvt. Ltd. 316 3 29 2 2008-04-28
AS45235 GEOCITY NETWORK SOLUTIONS PVT LTD 17 1 4 1 2008-06-19
AS45271 Idea Cellular Limited 789 1,241 3 0 2008-07-18
AS45335 IKF POWERNET 1 0 1 0 2008-08-01
AS45350 Hindustan Coca-Cola Beverages Pvt Ltd, 2 0 2 0 2008-08-15
AS45415 Vasai Cable Pvt. Ltd. 71 0 3 0 2008-08-25
AS45417 1-2-10, S P ROAD 1 0 2 0 2008-08-27
AS45433 Kappa Internet Services Private Limited 69 0 2 0 2008-09-15
AS45518 Ivy Comptech Pvt Ltd 3 0 2 0 2008-11-12
AS45526 UGAM SOLUTIONS PVT LTD, 1 0 2 0 2008-11-19
AS45528 Tikona Infinet Ltd. 759 25 7 0 2008-11-21
AS45535 American Express Banking Corp. 2 0 2 0 2008-11-26
AS45536 Readylink Internet Services Limited 25 0 2 0 2008-11-26
AS45566 AS number for Google Corporate Network in APAC 4 4 1 1 2015-04-09
AS45591 761, Solitaire corporate park 1 0 2 0 2008-12-31
AS45596 Centre For Railway Information Systems 3 0 5 0 2009-01-08
AS45625 Mindtree Ltd. 23 2 6 0 2009-02-10
AS45649 DST Worldwide Services 2 0 2 0 2009-03-10
AS45663 ValueLabs, Hyderabad. 4 0 4 0 2009-03-23
AS45747 OM Logistics Limited 3 0 2 0 2009-04-17
AS45820 Tata Teleservices ISP AS 857 19 240 22 2009-06-26
AS45850 DLF Building, Tower D 1 0 2 0 2009-07-21
AS45857 Sutherland Healthcare Solutions Private Limited 2 0 2 0 2009-07-24
AS55563 Dr.Reddy's Laboratories Ltd., 1 0 2 0 2010-07-02
AS55574 # 9 Seshardi Road 2 0 2 0 2010-07-12
AS55705 I World Tower, DLF CITY 18 4 4 2 2010-08-06
AS55709 Block 7, 1st Floor, DLF - IT- SEZ 1 0 2 0 2010-08-10
AS55757 Synechron Inc. 2 0 2 0 2010-09-10
AS55806 M/s VIVA Communications 5 0 2 0 2010-10-11
AS55839 Microsense Private Limited 21 1 3 1 2010-11-05
AS55918 Ground Floor, 'A' Wing, 1 0 1 0 2010-12-06
AS56077 Mobius Towers V Floor 8 0 2 0 2011-02-08
AS56110 Everdata Technologies Pvt Ltd 9 1 2 1 2011-03-01
AS56315 Ishan's Network - Allocated -Prime 5 0 1 0 2011-06-27
AS58405 18A/19,DODDANEKUNDI 20 1 4 1 2011-08-19
AS58419 Datavail Infotech Pvt Ltd 3 3 4 2 2011-09-08
AS58522 HTC Global Services (INDIA) Private Ltd 1 1 2 0 2012-02-06
AS58594 INFRANET SOLUTIONS 19 0 2 0 2012-05-04
AS58608 TTML Mumbai Turbhe 4 0 2 0 2012-05-18
AS58659 Quest Consultancy Pvt Ltd 81 2 2 0 2012-07-17
AS58758 Tata Institute of Fundamental Research 4 2 2 2 2012-12-10
AS58963 Infonet online solutions private limited 2 0 1 0 2013-07-22
AS58986 IDLE ANTS MEDIA PRIVATE LIMITED 5 0 1 0 2013-08-21
AS59161 Dnetworks Internet Services Pvt. Ltd. 15 0 1 0 2013-09-09
AS59216 Juxt Consult Research and Consulting Pvt. Ltd. 11 4 1 0 2013-10-21
AS131181 Financial Technologies Communication Limited 3 0 2 0 2009-05-25
AS131210 2713/4 lakshmi building adipampa road v.v.mohalla 19 0 3 0 2010-02-12
AS131215 116 MADHAV DARSHAN 32 0 3 0 2009-08-21
AS131235 Unit 69 SDF III 14 0 8 0 2009-10-01
AS131283 HDFC Bank House 7 6 2 0 2009-12-29
AS131442 Digital Network Associates Pvt Ltd 19 0 3 0 2011-06-27
AS131459 88c, Race Course Road, Coimbatore 641018 12 0 2 0 2011-07-08
AS132004 Touch Net India Pvt. Ltd. 10 0 2 0 2011-08-16
AS132005 209, Laxmi Plaza 5 1 1 0 2011-08-19
AS132028 Aspire Systems India Private Ltd 3 0 2 0 2011-09-16
AS132052 NIL-36C, Malviya Nagar 3 0 2 0 2011-10-19
AS132108 IL&FS House, Plot No. 14 5 0 3 0 2011-12-30
AS132121 HP-ENTERPRISE CLOUD SERVICES 1 0 2 0 2012-01-17
AS132144 GPX India Pvt. Ltd Unit A-001, 1 0 1 0 2012-02-14
AS132166 Rida Communication Private Limited 4 0 2 0 2012-02-27
AS132239 Envestnet Asset Management India Pvt. Ltd 2 0 2 0 2012-04-16
AS132323 PERFECT INTERNET PVT LTD 16 0 5 0 2012-07-11
AS132343 SUN TV NETWORK LIMITED 2 0 2 0 2012-07-26
AS132377 Ellucian Company LP 1 0 1 0 2012-08-28
AS132378 44KM Stone, Delhi-Rohtak Road 1 0 2 0 2012-08-28
AS132428 Quest Diagnostics HTAS India Pvt. Ltd. 2 0 2 0 2018-12-03
AS132440 3 rd floor, Dreams mall, L.B.S. marg, 1 1 1 0 2012-10-08
AS132470 Nextra Telesolutions Private Limited 6 0 1 0 2012-11-06
AS132485 Axis Securities Limited 2 0 2 0 2017-02-02
AS132507 Helios IT Infra Solutions P Ltd 3 0 2 0 2012-11-29
AS132562 ZeroWorries Private Limited 4 0 2 0 2013-01-14
AS132787 Helios IT Infrasolutions Pvt Ltd 9 0 5 0 2013-04-18
AS132867 Fidelity Business Services India Private Limited 2 0 3 0 2013-06-18
AS132893 KODIAK NETWORKS INDIA PRIVATE LIMITED 8 1 1 0 2013-07-03
AS132911 ECS BIZTECH PVT LTD 1 0 2 0 2013-07-11
AS133087 DST Worlwide Services India Pvt. Ltd. 1 0 2 0 2014-02-05
AS133088 Viteos Capital Market Services Limited 1 0 2 0 2014-02-06
AS133412 The Ogilvy Group, Inc. 1 0 1 0 2014-03-12
AS133552 B.M.S College Of Engineering 1 0 1 0 2014-07-03
AS133860 Transunion Cibil Limited 2 0 1 0 2016-09-27
AS133883 mGage India Pvt Limited 5 0 1 0 2014-12-11
AS134235 Subex Azure Limited 1 0 1 0 2015-06-10
AS134411 Manhattan Associates (India) Development Centre Pvt. Ltd. 2 0 4 0 2015-07-21
AS134430 Quikr India Pvt. Ltd 1 0 1 0 2015-07-28
AS134793 NTT Data Global Delivery Services Limited 1 0 2 0 2015-11-06
AS134796 NTT Data Global Delivery Services Limited 1 0 2 0 2015-11-09
AS134814 Immunity networks and Technologies Pvt Ltd 2 0 1 0 2020-03-01
AS134822 GOVT OF INDIA 1 0 1 0 2015-11-20
AS135500 R Systems International Limited 1 0 2 0 2016-05-24
AS135563 A&A DUKAAN FINANCIAL SERVICES PRIVATE LIMITED 3 0 2 0 2016-06-10
AS135569 NTT Data Global Delivery Services Private Limited 1 0 2 0 2016-06-14
AS135795 Silicon Care Broadnet Pvt Ltd. 17 0 2 0 2016-10-25
AS136033 IAIR INFOCOM PRIVATE LIMITED 2 0 1 0 2016-11-28
AS136138 Cybage Software Pvt. Ltd. 2 0 2 0 2016-12-07
AS136153 Nayara Energy Limited 2 0 2 0 2016-12-19
AS136172 XL India Business Services Private Limited 1 0 2 0 2017-01-09
AS136447 Four Kites India Private Ltd 1 0 2 0 2017-03-21
AS136481 Dreamlink Technologies Pvt. Ltd 8 0 3 0 2017-04-04
AS136894 TASEC Limited 1 0 1 0 2017-07-26
AS137225 Renault Nissan Technology & Business Centre India Private Limited 3 1 2 1 2017-12-07
AS137488 IceWarp Technologies Pvt. Ltd. 1 0 1 0 2018-03-01
AS137494 Majesco Software and Solutions India Pvt.Ltd. 2 0 3 0 2018-03-05
AS138155 JAWAHARLAL NEHRU UNIVERSITY 1 1 1 0 2018-08-23
AS138389 WTW Global Delivery and Solutions (India) Pvt. Ltd. 1 0 2 0 2018-10-29
AS138439 Jumio India Pvt. Ltd. 1 0 1 0 2018-11-16
AS138565 Vrednus Network Private Limited 1 0 1 0 2019-01-18
AS138671 SAHYOG OPTIC PVT. LTD. 4 0 1 0 2019-03-05
AS138922 Atulaya Healthcare Private Limited 1 0 1 0 2019-03-21
AS138957 TiVo Tech Private Limited 1 0 2 0 2019-04-01
AS139234 ALLSCRIPTS (INDIA) LLP 1 0 2 0 2019-06-18
AS139788 Kochar Infotech Limited 1 0 2 0 2019-11-13
AS140621 KFIN TECHNOLOGIES PRIVATE LIMITED 1 0 2 0 2020-05-05
AS140681 AADVANCE INFOTECH 2 0 1 0 2020-05-27
AS140924 MAVENIR SYSTEMS PRIVATE LIMITED 1 0 1 0 2020-07-20
AS140947 SnTHostings 1 0 1 0 2020-07-23
AS140982 Opicle Technologies Private Limited 2 0 1 0 2020-08-06
AS141004 QTIME BUSINESSES PRIVATE LIMITED 1 0 1 0 2020-08-14
AS213326 AS for Kalpak Mukhopadhyay LAB Network 0 8 0 4 2020-04-23